KMDH/MDH METAR and TAF weather

Enter ICAO airport designator
Station Type Date Time Source
KMDH METAR 2021/01/16 01:59 UTC NOAA

KMDH 160159Z 26012G20KT 1 3/4SM -SN BR FEW010 BKN021 OVC026 01/M01 A2959 RMK AO2 P0000 T00111011


Station Type Date Time Source
KMDH Decoded METAR 2021/01/16 01:59 UTC NOAA

SOUTHERN ILLINOIS AIRPORT, IL, United States (KMDH) 37-47N 089-15W 130M
Jan 15, 2021 - 08:59 PM EST / 2021.01.16 0159 UTC
Wind: from the W (260 degrees) at 14 MPH (12 KT) gusting to 23 MPH (20 KT):0
Visibility: 1 3/4 mile(s):0
Sky conditions: overcast
Weather: light snow; mist
Precipitation last hour: A trace
Temperature: 34.0 F (1.1 C)
Windchill: 24 F (-4 C):1
Dew Point: 30.0 F (-1.1 C)
Relative Humidity: 85%
Pressure (altimeter): 29.59 in. Hg (1002 hPa)
ob: KMDH 160159Z 26012G20KT 1 3/4SM -SN BR FEW010 BKN021 OVC026 01/M01 A2959 RMK AO2 P0000 T00111011
cycle: 2

Station Type Date Time Source
KMDH TAF UTC NOAA

Error!

Example: see airport list